createdAt,value
2023-04-17T00:01:23.952Z,79.36
2023-04-17T00:04:27.205Z,79.19
2023-04-17T00:07:30.064Z,79.85
2023-04-17T00:10:32.818Z,78.64
2023-04-17T00:13:35.661Z,78.64
2023-04-17T00:16:38.662Z,79.83
2023-04-17T00:19:41.576Z,81.05
2023-04-17T00:22:44.525Z,82.54
2023-04-17T00:25:47.267Z,81.69
2023-04-17T00:28:50.827Z,81.70
2023-04-17T00:31:53.881Z,82.20
2023-04-17T00:34:56.625Z,80.96
2023-04-17T00:37:59.491Z,79.64
2023-04-17T00:41:03.004Z,78.40
2023-04-17T00:44:05.744Z,77.88
2023-04-17T00:47:12.021Z,77.59
2023-04-17T00:50:15.167Z,77.49
2023-04-17T00:53:18.283Z,77.76
2023-04-17T00:56:21.874Z,77.05
2023-04-17T00:59:25.716Z,77.42
2023-04-17T01:02:29.402Z,77.10
2023-04-17T01:05:32.358Z,78.23
2023-04-17T01:08:44.748Z,77.75
2023-04-17T01:11:47.614Z,77.42
2023-04-17T01:14:54.307Z,77.30
2023-04-17T01:17:57.538Z,77.13
2023-04-17T01:21:00.245Z,76.87
2023-04-17T01:24:03.734Z,76.51
2023-04-17T01:27:07.430Z,76.09
2023-04-17T01:30:12.063Z,75.56
2023-04-17T01:33:24.569Z,75.41
2023-04-17T01:36:28.012Z,75.39
2023-04-17T01:39:30.868Z,74.57
2023-04-17T01:42:34.789Z,74.23
2023-04-17T01:45:37.572Z,74.28
2023-04-17T01:48:40.653Z,73.94
2023-04-17T01:51:43.539Z,73.85
2023-04-17T01:54:46.374Z,74.23
2023-04-17T01:57:49.842Z,74.29
2023-04-17T02:00:52.690Z,75.54
2023-04-17T02:03:55.931Z,77.51
2023-04-17T02:06:58.678Z,78.17
2023-04-17T02:10:01.620Z,78.98
2023-04-17T02:13:04.469Z,79.26
2023-04-17T02:16:08.003Z,80.00
2023-04-17T02:19:11.012Z,79.26
2023-04-17T02:22:13.944Z,79.13
2023-04-17T02:25:16.882Z,78.79
2023-04-17T02:28:19.796Z,77.69
2023-04-17T02:31:22.448Z,79.38
2023-04-17T02:34:25.168Z,79.22
2023-04-17T02:37:29.840Z,78.55
2023-04-17T02:40:32.900Z,77.40
2023-04-17T02:43:37.761Z,76.31
2023-04-17T02:46:40.444Z,77.01
2023-04-17T02:49:45.070Z,77.02
2023-04-17T02:52:47.736Z,76.85
2023-04-17T02:55:50.517Z,76.98
2023-04-17T02:58:56.431Z,77.41
2023-04-17T03:01:59.991Z,77.68
2023-04-17T03:05:04.480Z,77.70
2023-04-17T03:08:07.546Z,77.21
2023-04-17T03:11:18.730Z,77.31
2023-04-17T03:14:21.492Z,77.70
2023-04-17T03:17:24.320Z,77.64
2023-04-17T03:20:27.557Z,77.60
2023-04-17T03:23:31.053Z,77.51
2023-04-17T03:26:33.739Z,76.85
2023-04-17T03:29:42.116Z,75.88
2023-04-17T03:32:45.463Z,75.97
2023-04-17T03:35:48.165Z,75.75
2023-04-17T03:38:51.656Z,77.06
2023-04-17T03:41:54.527Z,77.07
2023-04-17T03:44:57.323Z,77.08
2023-04-17T03:48:01.678Z,77.15
2023-04-17T03:51:07.315Z,76.44
2023-04-17T03:54:11.600Z,76.26
2023-04-17T03:57:16.455Z,76.40
2023-04-17T04:00:20.543Z,76.56
2023-04-17T04:03:27.671Z,77.95
2023-04-17T04:06:31.177Z,77.50
2023-04-17T04:09:35.299Z,77.48
2023-04-17T04:12:39.961Z,77.14
2023-04-17T04:15:42.727Z,77.23
2023-04-17T04:18:46.252Z,77.99
2023-04-17T04:21:51.286Z,77.47
2023-04-17T04:24:54.452Z,78.49
2023-04-17T04:28:04.091Z,80.14
2023-04-17T04:31:07.187Z,79.20
2023-04-17T04:34:17.345Z,77.09
2023-04-17T04:37:22.299Z,78.13
2023-04-17T04:40:27.215Z,75.05
2023-04-17T04:43:30.321Z,73.12
2023-04-17T04:46:33.489Z,77.75
2023-04-17T04:49:37.355Z,78.37
2023-04-17T04:52:40.210Z,80.80
2023-04-17T04:55:54.809Z,81.41
2023-04-17T04:58:59.189Z,82.48
2023-04-17T05:02:02.868Z,81.28
2023-04-17T05:05:07.960Z,82.87
2023-04-17T05:08:10.756Z,80.73
2023-04-17T05:11:15.206Z,81.61
2023-04-17T05:14:18.645Z,81.34
2023-04-17T05:17:21.513Z,80.48
2023-04-17T05:20:26.882Z,78.16
2023-04-17T05:23:33.064Z,78.17
2023-04-17T05:26:35.909Z,77.49
2023-04-17T05:29:40.141Z,76.57
2023-04-17T05:32:43.850Z,76.30
2023-04-17T05:36:06.903Z,73.96
2023-04-17T05:39:16.852Z,71.98
2023-04-17T05:42:19.757Z,70.63
2023-04-17T05:45:25.398Z,70.32
2023-04-17T05:48:29.277Z,69.50
2023-04-17T05:51:32.373Z,68.96
2023-04-17T05:54:35.340Z,68.65
2023-04-17T05:57:38.471Z,66.65
2023-04-17T06:00:42.650Z,66.33
2023-04-17T06:03:49.739Z,65.63
2023-04-17T06:06:57.646Z,66.43
2023-04-17T06:10:01.049Z,65.98
2023-04-17T06:13:04.023Z,64.79
2023-04-17T06:16:09.000Z,65.36
2023-04-17T06:19:11.992Z,66.09
2023-04-17T06:22:15.083Z,63.79
2023-04-17T06:25:18.777Z,64.75
2023-04-17T06:28:21.992Z,62.23
2023-04-17T06:31:28.135Z,63.97
2023-04-17T06:34:30.950Z,61.86
2023-04-17T06:37:33.913Z,63.18
2023-04-17T06:40:36.908Z,62.29
2023-04-17T06:43:42.276Z,62.92
2023-04-17T06:46:55.305Z,61.62
2023-04-17T06:50:00.214Z,62.59
2023-04-17T06:53:02.937Z,64.55
2023-04-17T06:56:06.164Z,62.04
2023-04-17T06:59:09.901Z,62.52
2023-04-17T07:02:13.007Z,62.77
2023-04-17T07:05:16.197Z,64.38
2023-04-17T07:08:22.680Z,62.38
2023-04-17T07:11:25.670Z,61.74
2023-04-17T07:14:28.465Z,60.48
2023-04-17T07:17:31.700Z,61.43
2023-04-17T07:20:34.366Z,60.91
2023-04-17T07:23:37.637Z,60.62
2023-04-17T07:26:40.780Z,61.00
2023-04-17T07:29:43.752Z,62.42
2023-04-17T07:32:47.145Z,61.26
2023-04-17T07:35:49.878Z,59.49
2023-04-17T07:38:52.635Z,59.58
2023-04-17T07:41:55.308Z,59.23
2023-04-17T07:44:58.081Z,59.98
2023-04-17T07:48:00.743Z,59.36
2023-04-17T07:51:03.553Z,58.99
2023-04-17T07:54:06.274Z,59.61
2023-04-17T07:57:09.089Z,60.41
2023-04-17T08:00:14.505Z,58.11
2023-04-17T08:03:18.292Z,58.56
2023-04-17T08:06:21.331Z,57.76
2023-04-17T08:09:24.050Z,58.10
2023-04-17T08:12:27.159Z,57.13
2023-04-17T08:15:29.964Z,57.04
2023-04-17T08:18:33.069Z,54.67
2023-04-17T08:21:35.732Z,57.60
2023-04-17T08:24:41.067Z,55.52
2023-04-17T08:27:43.925Z,54.81
2023-04-17T08:30:46.767Z,55.81
2023-04-17T08:33:51.294Z,55.18
2023-04-17T08:36:57.792Z,53.81
2023-04-17T08:40:00.840Z,55.16
2023-04-17T08:43:07.594Z,52.25
2023-04-17T08:46:10.855Z,52.36
2023-04-17T08:49:14.033Z,52.79
2023-04-17T08:52:17.275Z,53.16
2023-04-17T08:55:22.835Z,53.73
2023-04-17T08:58:28.695Z,53.14
2023-04-17T09:01:31.757Z,52.97
2023-04-17T09:04:42.677Z,52.33
2023-04-17T09:07:45.900Z,53.16
2023-04-17T09:10:53.146Z,53.31
2023-04-17T09:13:56.050Z,51.82
2023-04-17T09:16:59.116Z,51.08
2023-04-17T09:20:04.316Z,49.84
2023-04-17T09:23:07.105Z,52.43
2023-04-17T09:26:12.468Z,51.46
2023-04-17T09:29:16.167Z,51.09
2023-04-17T09:32:19.433Z,52.24
2023-04-17T09:35:28.253Z,50.55
2023-04-17T09:38:38.629Z,48.69
2023-04-17T09:41:42.161Z,49.65
2023-04-17T09:44:45.492Z,51.37
2023-04-17T09:47:48.799Z,51.30
2023-04-17T09:50:51.816Z,49.42
2023-04-17T09:53:54.811Z,50.27
2023-04-17T09:56:59.183Z,49.57
2023-04-17T10:00:05.364Z,49.95
2023-04-17T10:03:09.527Z,48.67
2023-04-17T10:06:13.010Z,50.01
2023-04-17T10:09:16.130Z,50.16
2023-04-17T10:12:19.823Z,50.87
2023-04-17T10:15:24.084Z,50.28
2023-04-17T10:18:28.322Z,48.67
2023-04-17T10:21:31.525Z,49.29
2023-04-17T10:24:34.359Z,49.81
2023-04-17T10:27:37.710Z,51.41
2023-04-17T10:30:54.977Z,48.59
2023-04-17T10:33:58.471Z,46.78
2023-04-17T10:37:01.866Z,49.02
2023-04-17T10:40:11.054Z,47.06
2023-04-17T10:43:18.414Z,46.43
2023-04-17T10:46:26.521Z,46.42
2023-04-17T10:49:29.481Z,47.02
2023-04-17T10:52:42.092Z,46.81
2023-04-17T10:55:50.965Z,45.58
2023-04-17T10:58:59.723Z,46.18
2023-04-17T11:02:05.105Z,45.43
2023-04-17T11:05:08.281Z,45.40
2023-04-17T11:08:12.158Z,47.44
2023-04-17T11:11:23.556Z,48.56
2023-04-17T11:14:33.491Z,49.01
2023-04-17T11:17:46.154Z,49.54
2023-04-17T11:20:51.827Z,51.36
2023-04-17T11:23:54.699Z,51.48
2023-04-17T11:27:04.151Z,51.80
2023-04-17T11:30:08.438Z,50.88
2023-04-17T11:33:13.228Z,51.59
2023-04-17T11:36:16.751Z,50.38
2023-04-17T11:39:21.710Z,50.96
2023-04-17T11:42:28.221Z,50.18
2023-04-17T11:45:32.912Z,49.17
2023-04-17T11:48:35.973Z,50.51
2023-04-17T11:51:38.800Z,50.33
2023-04-17T11:54:42.020Z,50.68
2023-04-17T11:57:44.864Z,49.23
2023-04-17T12:01:05.015Z,50.04
2023-04-17T12:04:20.503Z,49.60
2023-04-17T12:07:26.886Z,50.55
2023-04-17T12:10:43.403Z,51.87
2023-04-17T12:13:46.549Z,51.83
2023-04-17T12:16:50.896Z,52.12
2023-04-17T12:19:54.098Z,52.83
2023-04-17T12:22:57.120Z,52.83
2023-04-17T12:25:59.821Z,51.70
2023-04-17T12:29:02.881Z,51.92
2023-04-17T12:32:06.113Z,53.07
2023-04-17T12:35:09.365Z,51.81
2023-04-17T12:38:12.096Z,51.24
2023-04-17T12:41:14.913Z,52.41
2023-04-17T12:44:17.796Z,51.68
2023-04-17T12:47:20.771Z,50.66
2023-04-17T12:50:23.803Z,50.64
2023-04-17T12:53:26.614Z,51.30
2023-04-17T12:56:29.590Z,51.85
2023-04-17T12:59:32.570Z,52.61
2023-04-17T13:02:36.454Z,52.30
2023-04-17T13:05:39.858Z,53.32
2023-04-17T13:08:42.819Z,52.99
2023-04-17T13:11:45.663Z,54.22
2023-04-17T13:14:48.550Z,53.82
2023-04-17T13:17:51.271Z,52.46
2023-04-17T13:20:54.084Z,53.80
2023-04-17T13:23:56.889Z,53.99
2023-04-17T13:26:59.848Z,52.99
2023-04-17T13:30:02.741Z,51.48
2023-04-17T13:33:06.050Z,51.75
2023-04-17T13:36:08.791Z,53.25
2023-04-17T13:39:12.031Z,52.83
2023-04-17T13:42:19.611Z,53.16
2023-04-17T13:45:22.654Z,53.75
2023-04-17T13:48:25.540Z,53.57
2023-04-17T13:51:28.662Z,53.56
2023-04-17T13:54:31.800Z,54.28
2023-04-17T13:57:36.362Z,53.30
2023-04-17T14:00:39.109Z,54.21
2023-04-17T14:03:44.596Z,53.99
2023-04-17T14:06:50.752Z,54.77
2023-04-17T14:09:53.462Z,53.49
2023-04-17T14:12:56.321Z,54.16
2023-04-17T14:15:59.299Z,54.37
2023-04-17T14:19:12.579Z,55.39
2023-04-17T14:22:17.077Z,54.38
2023-04-17T14:25:19.970Z,54.02
2023-04-17T14:28:24.104Z,54.83
2023-04-17T14:31:26.985Z,53.46
2023-04-17T14:34:30.150Z,53.60
2023-04-17T14:37:34.110Z,54.07
2023-04-17T14:40:37.027Z,54.02
2023-04-17T14:43:39.872Z,53.38
2023-04-17T14:46:42.796Z,53.83
2023-04-17T14:49:45.737Z,53.88
2023-04-17T14:52:48.782Z,54.01
2023-04-17T14:55:52.082Z,54.64
2023-04-17T14:58:55.110Z,53.16
2023-04-17T15:01:58.008Z,54.55
2023-04-17T15:05:01.211Z,54.12
2023-04-17T15:08:04.244Z,55.90
2023-04-17T15:11:07.542Z,56.13
2023-04-17T15:14:11.327Z,57.03
2023-04-17T15:17:14.190Z,56.46
2023-04-17T15:20:16.974Z,57.23
2023-04-17T15:23:19.852Z,57.70
2023-04-17T15:26:23.202Z,57.11
2023-04-17T15:29:25.960Z,56.34
2023-04-17T15:32:28.858Z,56.62
2023-04-17T15:35:31.869Z,56.36
2023-04-17T15:38:34.919Z,56.48
2023-04-17T15:41:40.440Z,57.45
2023-04-17T15:44:43.340Z,57.39
2023-04-17T15:47:46.291Z,57.82
2023-04-17T15:50:49.226Z,58.50
2023-04-17T15:53:52.181Z,58.15
2023-04-17T15:56:56.507Z,59.04
2023-04-17T15:59:59.642Z,57.38
2023-04-17T16:03:02.684Z,57.36
2023-04-17T16:06:06.213Z,57.92
2023-04-17T16:09:10.203Z,57.48
2023-04-17T16:12:13.316Z,57.91
2023-04-17T16:15:17.547Z,58.29
2023-04-17T16:18:20.825Z,58.20
2023-04-17T16:21:23.585Z,58.02
2023-04-17T16:24:26.913Z,58.67
2023-04-17T16:27:30.885Z,58.36
2023-04-17T16:30:33.930Z,58.97
2023-04-17T16:33:36.819Z,58.40
2023-04-17T16:36:39.557Z,59.75
2023-04-17T16:39:42.333Z,59.97
2023-04-17T16:43:50.869Z,59.95
2023-04-17T16:47:09.940Z,59.87
2023-04-17T16:50:15.746Z,60.07
2023-04-17T16:53:18.653Z,60.00
2023-04-17T16:56:21.890Z,60.74
2023-04-17T16:59:24.808Z,60.48
2023-04-17T17:02:27.906Z,60.50
2023-04-17T17:05:30.749Z,61.56
2023-04-17T17:08:33.650Z,61.62
2023-04-17T17:11:36.652Z,62.22
2023-04-17T17:14:39.524Z,62.26
2023-04-17T17:17:43.451Z,62.65
2023-04-17T17:20:54.510Z,63.83
2023-04-17T17:23:57.490Z,62.25
2023-04-17T17:27:00.333Z,64.49
2023-04-17T17:30:04.462Z,66.21
2023-04-17T17:33:07.324Z,66.20
2023-04-17T17:36:12.074Z,66.73
2023-04-17T17:39:15.090Z,67.05
2023-04-17T17:42:18.248Z,68.54
2023-04-17T17:45:20.987Z,68.36
2023-04-17T17:48:23.913Z,67.15
2023-04-17T17:51:27.284Z,68.98
2023-04-17T17:54:30.087Z,68.05
2023-04-17T17:57:38.691Z,68.71
2023-04-17T18:00:51.305Z,69.59
2023-04-17T18:03:54.361Z,67.87
2023-04-17T18:06:57.521Z,70.03
2023-04-17T18:10:00.621Z,70.16
2023-04-17T18:13:03.946Z,68.00
2023-04-17T18:16:07.292Z,69.65
2023-04-17T18:19:10.324Z,70.57
2023-04-17T18:22:13.101Z,71.17
2023-04-17T18:25:16.313Z,70.98
2023-04-17T18:28:19.184Z,71.77
2023-04-17T18:31:23.402Z,72.73
2023-04-17T18:34:26.270Z,73.25
2023-04-17T18:37:29.684Z,72.98
2023-04-17T18:40:32.414Z,73.22
2023-04-17T18:43:35.408Z,73.91
2023-04-17T18:46:38.265Z,73.97
2023-04-17T18:49:41.201Z,73.79
2023-04-17T18:52:49.413Z,74.42
2023-04-17T18:55:56.054Z,74.43
2023-04-17T18:58:58.989Z,75.33
2023-04-17T19:02:01.944Z,74.94
2023-04-17T19:05:05.199Z,76.11
2023-04-17T19:08:08.057Z,76.11
2023-04-17T19:11:11.467Z,76.43
2023-04-17T19:14:14.454Z,76.86
2023-04-17T19:17:17.544Z,77.24
2023-04-17T19:20:21.816Z,77.53
2023-04-17T19:23:24.611Z,77.46
2023-04-17T19:26:29.933Z,77.05
2023-04-17T19:29:32.829Z,77.66
2023-04-17T19:32:35.864Z,78.33
2023-04-17T19:35:39.141Z,77.79
2023-04-17T19:38:42.101Z,77.68
2023-04-17T19:41:52.289Z,78.38
2023-04-17T19:44:55.223Z,76.21
2023-04-17T19:47:58.152Z,78.85
2023-04-17T19:51:03.481Z,78.76
2023-04-17T19:54:06.280Z,78.65
2023-04-17T19:57:09.219Z,78.18
2023-04-17T20:00:12.998Z,78.34
2023-04-17T20:03:15.871Z,78.54
2023-04-17T20:06:19.754Z,78.12
2023-04-17T20:09:22.606Z,79.47
2023-04-17T20:12:25.852Z,78.18
2023-04-17T20:15:29.584Z,78.94
2023-04-17T20:18:34.092Z,79.23
2023-04-17T20:21:37.209Z,79.29
2023-04-17T20:24:40.091Z,80.36
2023-04-17T20:27:42.847Z,79.13
2023-04-17T20:30:45.620Z,78.77
2023-04-17T20:33:48.531Z,78.45
2023-04-17T20:36:51.715Z,80.06
2023-04-17T20:39:54.473Z,79.45
2023-04-17T20:42:57.357Z,80.33
2023-04-17T20:46:00.404Z,80.42
2023-04-17T20:49:03.323Z,80.49
2023-04-17T20:52:06.050Z,80.87
2023-04-17T20:55:09.570Z,80.02
2023-04-17T20:58:12.281Z,80.13
2023-04-17T21:01:16.263Z,80.85
2023-04-17T21:04:19.180Z,80.79
2023-04-17T21:07:21.904Z,80.88
2023-04-17T21:10:24.629Z,82.70
2023-04-17T21:13:27.399Z,82.75
2023-04-17T21:16:31.552Z,82.41
2023-04-17T21:19:40.599Z,82.50
2023-04-17T21:22:43.391Z,82.49
2023-04-17T21:25:46.073Z,81.16
2023-04-17T21:28:49.061Z,82.57
2023-04-17T21:31:51.916Z,81.30
2023-04-17T21:34:54.621Z,81.04
2023-04-17T21:37:57.317Z,81.24
2023-04-17T21:41:00.105Z,79.98
2023-04-17T21:44:04.058Z,80.03
2023-04-17T21:47:06.744Z,80.31
2023-04-17T21:50:09.935Z,79.73
2023-04-17T21:53:12.711Z,78.31
2023-04-17T21:56:15.726Z,78.48
2023-04-17T21:59:18.520Z,78.97
2023-04-17T22:02:21.298Z,82.03
2023-04-17T22:05:24.040Z,81.30
2023-04-17T22:08:26.705Z,81.63
2023-04-17T22:11:29.434Z,81.31
2023-04-17T22:14:32.246Z,80.37
2023-04-17T22:17:35.299Z,80.05
2023-04-17T22:20:38.110Z,82.48
2023-04-17T22:23:40.761Z,82.28
2023-04-17T22:26:43.504Z,81.39
2023-04-17T22:29:46.314Z,80.24
2023-04-17T22:32:49.186Z,80.38
2023-04-17T22:35:52.097Z,82.76
2023-04-17T22:38:54.747Z,81.93
2023-04-17T22:41:58.234Z,82.13
2023-04-17T22:45:03.247Z,80.96
2023-04-17T22:48:06.620Z,82.70
2023-04-17T22:51:10.052Z,83.29
2023-04-17T22:54:22.168Z,82.69
2023-04-17T22:57:26.424Z,82.73
2023-04-17T23:00:30.474Z,82.51
2023-04-17T23:03:34.566Z,82.54
2023-04-17T23:06:37.318Z,82.31
2023-04-17T23:09:40.148Z,82.78
2023-04-17T23:12:43.005Z,82.60
2023-04-17T23:15:45.734Z,82.42
2023-04-17T23:18:48.535Z,83.11
2023-04-17T23:21:51.151Z,83.98
2023-04-17T23:24:53.819Z,82.82
2023-04-17T23:27:56.594Z,83.27
2023-04-17T23:30:59.465Z,82.62
2023-04-17T23:34:02.368Z,83.33
2023-04-17T23:37:05.125Z,84.36
2023-04-17T23:40:09.107Z,84.28
2023-04-17T23:43:11.740Z,83.96
2023-04-17T23:46:14.505Z,83.90
2023-04-17T23:49:17.103Z,84.08
2023-04-17T23:52:19.921Z,83.19
2023-04-17T23:55:23.458Z,83.38
2023-04-17T23:58:26.115Z,83.62
